Yaren, Nauru
Current Conditions -  °F | °C
As of 4:00 PM on Friday 31 Oct 2014 (Local Time) from NGTT Reporting Station
Few Clouds Few Clouds  
Wind Chill: 88°   Ceiling: Unl
Heat Index: 93°   Visibility: 6mi
Dew Point: 70°   Wind: 5mph
Humidity: 55%   Direction: 80°E
Pressure: 29.74"   Gusts: NA
Location:  0.55°S, 166.91°E
Report Text: NGTT 310400Z 08004KT 9999 FEW020 31/21 Q1007 RMK DRY AIR
Loading
Personal Weather Stations






























Interactive Weather Map
Tropical Storm Tracking
New forecast layout! Learn more

10-Day Weather Forecast

Advertisements
Track Severe Weather on mobile